Terminal Aerodrome Forecast
Issued by NWS Pittsburgh, PA

Current Version | Previous Version | Graphics & Text | Print | Product List | Glossary On
Versions: 1 2 3 4 5 6 7 8 9 10 11 12 13 14 15 16 17 18 19 20 21 22 23 24 25 26 27 28 29 30
000
FTUS41 KPBZ 281137
TAFPIT
TAF
KPIT 281137Z 2812/2918 00000KT 1SM BR SCT002 BKN050
      TEMPO 2812/2813 1/2SM FG BKN002
     FM281300 18005KT 5SM BR BKN050
     FM281500 18008KT P6SM BKN035
     FM281900 20008KT P6SM VCTS BKN035CB
     FM282300 21008KT 5SM -SHRA VCTS OVC035CB
     FM290300 20008KT 5SM -SHRA OVC035
     FM290700 25010KT P6SM VCSH BKN025
     FM291200 27010KT P6SM BKN040=

USA.gov is the U.S. government's official web portal to all federal, state and local government web resources and services.